Domov               UVHVVR             MKGP            O straneh              
ZDRAVSTVENO VARSTVO RASTLIN
  MREŽA AGROMET. POSTAJ
 ► PROGNOSTIČNA OBVESTILA
AGROMETEOROLOŠKI PODATKI -
ARSO
OBVLADOVANJE TVEGANJ ZARADI
NEUGODNIH VREMENSKIH RAZMER
  ► NARAVNE NESREČE
  ► SUŠA/MOČA
  ► NAMAKANJE
  ► ŽLED (gozdarstvo)
KARTOGRAFSKI PRIKAZI
SPLETNE POVEZAVE
PROJEKTI IN PUBLIKACIJE

AGROMETEOROLOŠKA MREŽA: VREMENSKE POSTAJE IN FENOLOŠKA OPAZOVANJA

Pregled podatkov za lokacijo Kamnik, meteorološka postaja 25045

Pregled senzorjev na lokaciji

ID Ime Zadnja
vrednost
Datum
zadnje
spremembe
Tip
senzorja
377 Omočenost lista (U) 3 U 19.8.2017 03:30 A730WET
378 Padavine 0.2 mm (mm) 0 mm 19.8.2017 03:30 Generic 0.2 mm
379 Temperatura 2 m ( °C) 16,36 °C 19.8.2017 03:30 Generic -40 - +60 °C
380 Relativna vlaga 2 m (% RH) 87,47 % RH 19.8.2017 03:30 Generic 0 - 100 %

Pregled podatkov zadnjih 24 ur

Zap.
št.
Datum in čas Kamnik
Omočenost
lista
Padavine
0.2
mm
Relativna
vlaga
2
m
Temperatura
2
m
0 19.8.2017 02:30 3 0 87,47 16,36
1 19.8.2017 02:00 3 0 87,37 16,48
2 19.8.2017 01:30 4 0 83,98 17,19
3 19.8.2017 01:00 3 0 83,35 17,48
4 19.8.2017 00:30 4 0 82,25 17,73
5 19.8.2017 00:00 3 0 80,32 18,24
6 18.8.2017 23:30 0 0 76,19 19,17
7 18.8.2017 23:00 0 0 74,73 19,83
8 18.8.2017 22:30 0 0 68,72 21,07
9 18.8.2017 22:00 0 0 68,6 21,51
10 18.8.2017 21:30 0 0 68,74 21,64
11 18.8.2017 21:00 0 0 68,77 21,95
12 18.8.2017 20:30 0 0 71,14 22,03
13 18.8.2017 20:00 0 0 68,79 22,56
14 18.8.2017 19:30 0 0 59,41 24,52
15 18.8.2017 19:00 0 0 61,44 24,91
16 18.8.2017 18:30 0 0 57,31 26,08
17 18.8.2017 18:00 0 0 51,55 29,55
18 18.8.2017 17:30 0 0 40,88 31,72
19 18.8.2017 17:00 0 0 33,94 31,97
20 18.8.2017 16:30 0 0 33,46 31,89
21 18.8.2017 16:00 0 0 32,67 32,21
22 18.8.2017 15:30 0 0 31,55 31,43
23 18.8.2017 15:00 0 0 32,09 31,67
24 18.8.2017 14:30 0 0 32,28 31,72
25 18.8.2017 14:00 0 0 32,75 31,87
26 18.8.2017 13:30 0 0 32,06 30,96
27 18.8.2017 13:00 0 0 37,26 30,33
28 18.8.2017 12:30 0 0 37,26 30,04
29 18.8.2017 12:00 0 0 40,73 29,3
30 18.8.2017 11:30 0 0 43,52 28,89
31 18.8.2017 11:00 0 0 46,74 28,33
32 18.8.2017 10:30 0 0 55,09 26,76
33 18.8.2017 10:00 0 0 57,68 26,15
34 18.8.2017 09:30 0 0 61,25 24,86
35 18.8.2017 09:00 0 0 64,44 23,71
36 18.8.2017 08:30 0 0 68,55 22,64
37 18.8.2017 08:00 0 0 71,28 21,73
38 18.8.2017 07:30 7 0 74,36 20,34
39 18.8.2017 07:00 10 0 80,44 18,8
40 18.8.2017 06:30 10 0 86,3 17,34
41 18.8.2017 06:00 10 0 95,34 15,68
42 18.8.2017 05:30 10 0 97,19 15,02
43 18.8.2017 05:00 10 0 96,78 15,02
44 18.8.2017 04:30 8 0 95,24 15,29
45 18.8.2017 04:00 4 0 94,55 15,43
© 2011 Ministrstvo za kmetijstvo, gozdarstvo in prehrano. Vse pravice pridržane.